Time;durP1;ratioP1;P1;durP2;ratioP2;P2;SDS_P1;SDS_P2;PMS_P1;PMS_P2;Temp;Humidity;BMP_temperature;BMP_pressure;BME280_temperature;BME280_humidity;BME280_pressure;Samples;Min_cycle;Max_cycle;Signal;HPM_P1;HPM_P2
2023/10/21 00:01:20;;;;;;;27.60;4.78;;;;;;;;;;6338224;22;20091;-42
2023/10/21 00:03:48;;;;;;;15.68;2.85;;;;;;;;;;6329156;22;20059;-41
2023/10/21 00:06:17;;;;;;;16.63;2.80;;;;;;;;;;6305464;22;20011;-42
2023/10/21 00:08:45;;;;;;;11.52;2.97;;;;;;;;;;6331227;22;20091;-42
2023/10/21 00:11:13;;;;;;;17.20;3.10;;;;;;;;;;6331475;22;20050;-42
2023/10/21 00:13:41;;;;;;;17.25;2.67;;;;;;;;;;6336956;22;20018;-41
2023/10/21 00:16:11;;;;;;;15.50;3.30;;;;;;;;;;6334708;22;20038;-42
2023/10/21 00:18:39;;;;;;;16.13;3.95;;;;;;;;;;6331040;22;20014;-42
2023/10/21 00:21:07;;;;;;;18.50;4.05;;;;;;;;;;6333427;22;20452;-41
2023/10/21 00:23:36;;;;;;;19.63;3.13;;;;;;;;;;6331866;22;20010;-42
2023/10/21 00:26:04;;;;;;;21.52;4.40;;;;;;;;;;6327011;22;20019;-41
2023/10/21 00:28:32;;;;;;;15.93;3.75;;;;;;;;;;6332268;22;20041;-41
2023/10/21 00:31:01;;;;;;;16.35;3.38;;;;;;;;;;6336179;22;20042;-43
2023/10/21 00:33:29;;;;;;;15.00;4.18;;;;;;;;;;6329979;22;20683;-42
2023/10/21 00:35:56;;;;;;;16.60;4.13;;;;;;;;;;6342618;22;20330;-42
2023/10/21 00:38:24;;;;;;;20.55;4.28;;;;;;;;;;6317481;22;20021;-43
2023/10/21 00:40:55;;;;;;;16.35;4.00;;;;;;;;;;6338743;22;20011;-42
2023/10/21 00:43:32;;;;;;;16.95;3.88;;;;;;;;;;6333072;22;20014;-42
2023/10/21 00:46:03;;;;;;;16.67;4.15;;;;;;;;;;6327291;22;20019;-49
2023/10/21 00:48:32;;;;;;;16.60;3.80;;;;;;;;;;6339379;22;20401;-42
2023/10/21 00:51:00;;;;;;;26.67;4.68;;;;;;;;;;6332824;22;20055;-42
2023/10/21 00:53:31;;;;;;;20.05;3.88;;;;;;;;;;6322623;22;20015;-42
2023/10/21 00:56:00;;;;;;;16.55;2.92;;;;;;;;;;6338997;22;20019;-42
2023/10/21 00:58:31;;;;;;;14.43;3.08;;;;;;;;;;6332441;22;20011;-42
2023/10/21 01:01:01;;;;;;;17.50;4.03;;;;;;;;;;6337016;22;20011;-43
2023/10/21 01:03:30;;;;;;;17.10;3.45;;;;;;;;;;6329075;22;20402;-44
2023/10/21 01:05:58;;;;;;;20.13;3.00;;;;;;;;;;6337873;22;20015;-43
2023/10/21 01:08:26;;;;;;;17.95;3.03;;;;;;;;;;6309185;22;20040;-42
2023/10/21 01:10:53;;;;;;;17.25;3.40;;;;;;;;;;6338494;22;20015;-45
2023/10/21 01:13:22;;;;;;;21.53;3.47;;;;;;;;;;6321761;22;20473;-42
2023/10/21 01:15:50;;;;;;;14.90;3.20;;;;;;;;;;6339675;22;20022;-43
2023/10/21 01:18:18;;;;;;;18.45;2.50;;;;;;;;;;6330380;22;20098;-42
2023/10/21 01:20:52;;;;;;;15.80;3.83;;;;;;;;;;6335952;22;20067;-45
2023/10/21 01:23:21;;;;;;;17.33;2.92;;;;;;;;;;6317954;22;20121;-43
2023/10/21 01:25:49;;;;;;;19.90;3.10;;;;;;;;;;6337429;22;20103;-42
2023/10/21 01:28:17;;;;;;;11.88;3.03;;;;;;;;;;6327607;22;20205;-44
2023/10/21 01:30:45;;;;;;;14.18;2.65;;;;;;;;;;6340665;22;20733;-45
2023/10/21 01:33:12;;;;;;;26.10;3.33;;;;;;;;;;6320524;22;20097;-42
2023/10/21 01:35:40;;;;;;;18.23;2.75;;;;;;;;;;6338688;22;20445;-42
2023/10/21 01:38:08;;;;;;;12.40;2.43;;;;;;;;;;6330380;22;20504;-44
2023/10/21 01:40:37;;;;;;;21.00;3.10;;;;;;;;;;6318245;22;20417;-43
2023/10/21 01:43:04;;;;;;;14.23;2.78;;;;;;;;;;6341725;22;20016;-42
2023/10/21 01:45:34;;;;;;;12.45;2.90;;;;;;;;;;6339178;22;20458;-42
2023/10/21 01:48:02;;;;;;;16.48;2.92;;;;;;;;;;6334487;22;20019;-43
2023/10/21 01:50:30;;;;;;;13.90;2.77;;;;;;;;;;6348232;22;20021;-41
2023/10/21 01:52:58;;;;;;;18.17;3.08;;;;;;;;;;6332248;22;20018;-41
2023/10/21 01:55:26;;;;;;;16.42;2.50;;;;;;;;;;6341284;22;20025;-43
2023/10/21 01:57:55;;;;;;;14.38;2.55;;;;;;;;;;6339287;22;20019;-44
2023/10/21 02:00:24;;;;;;;14.90;2.53;;;;;;;;;;6336814;22;20100;-43
2023/10/21 02:02:52;;;;;;;12.60;2.47;;;;;;;;;;6345031;22;20089;-43
2023/10/21 02:05:20;;;;;;;12.73;2.13;;;;;;;;;;6334986;22;20037;-43
2023/10/21 02:07:48;;;;;;;14.52;1.80;;;;;;;;;;6327971;22;20018;-42
2023/10/21 02:10:20;;;;;;;15.55;2.20;;;;;;;;;;6339154;22;20468;-42
2023/10/21 02:12:48;;;;;;;9.32;2.40;;;;;;;;;;6322260;22;20014;-43
2023/10/21 02:15:17;;;;;;;19.90;2.77;;;;;;;;;;6348949;22;20397;-43
2023/10/21 02:17:46;;;;;;;14.20;2.83;;;;;;;;;;6340243;22;20040;-43
2023/10/21 02:20:14;;;;;;;12.13;2.75;;;;;;;;;;6338144;22;20389;-42
2023/10/21 02:22:43;;;;;;;16.98;2.60;;;;;;;;;;6338255;22;20033;-44
2023/10/21 02:25:11;;;;;;;10.30;2.78;;;;;;;;;;6330610;22;20038;-43
2023/10/21 02:27:42;;;;;;;13.17;2.23;;;;;;;;;;6345691;22;20050;-42
2023/10/21 02:30:12;;;;;;;14.00;2.60;;;;;;;;;;6327228;22;20064;-42
2023/10/21 02:32:44;;;;;;;13.40;2.45;;;;;;;;;;6352121;22;20014;-43
2023/10/21 02:35:12;;;;;;;19.60;2.67;;;;;;;;;;6334054;22;20042;-41
2023/10/21 02:37:40;;;;;;;17.02;2.50;;;;;;;;;;6345524;22;20014;-42
2023/10/21 02:40:10;;;;;;;11.97;2.70;;;;;;;;;;6336814;22;20057;-42
2023/10/21 02:42:38;;;;;;;13.48;2.08;;;;;;;;;;6342607;22;20014;-42
2023/10/21 02:45:06;;;;;;;17.67;2.28;;;;;;;;;;6339645;22;20807;-42
2023/10/21 02:47:34;;;;;;;19.50;2.90;;;;;;;;;;6325666;22;20079;-42
2023/10/21 02:50:03;;;;;;;14.52;2.47;;;;;;;;;;6347051;22;20010;-42
2023/10/21 02:52:30;;;;;;;17.57;2.50;;;;;;;;;;6338701;22;20014;-42
2023/10/21 02:54:58;;;;;;;9.35;2.00;;;;;;;;;;6313647;22;20445;-42
2023/10/21 02:57:26;;;;;;;12.75;2.30;;;;;;;;;;6320519;22;20019;-42
2023/10/21 02:59:54;;;;;;;14.90;2.55;;;;;;;;;;6337766;22;20417;-41
2023/10/21 03:02:22;;;;;;;14.80;1.90;;;;;;;;;;6342333;22;20038;-41
2023/10/21 03:04:50;;;;;;;11.63;1.90;;;;;;;;;;6342135;22;20567;-42
2023/10/21 03:07:19;;;;;;;9.07;1.90;;;;;;;;;;6336823;22;20018;-42
2023/10/21 03:09:46;;;;;;;14.88;2.33;;;;;;;;;;6346198;22;20444;-42
2023/10/21 03:12:14;;;;;;;14.15;2.70;;;;;;;;;;6330424;22;20015;-41
2023/10/21 03:14:42;;;;;;;19.10;3.05;;;;;;;;;;6315987;22;20034;-42
2023/10/21 03:17:09;;;;;;;14.43;2.63;;;;;;;;;;6344880;22;20021;-42
2023/10/21 03:19:38;;;;;;;15.38;2.67;;;;;;;;;;6342827;22;20091;-41
2023/10/21 03:22:06;;;;;;;17.73;3.47;;;;;;;;;;6349990;22;20014;-42
2023/10/21 03:24:35;;;;;;;13.50;2.33;;;;;;;;;;6328206;22;20014;-42
2023/10/21 03:27:03;;;;;;;14.52;1.92;;;;;;;;;;6337484;22;20014;-42
2023/10/21 03:29:31;;;;;;;13.97;2.27;;;;;;;;;;6340877;22;20018;-43
2023/10/21 03:31:59;;;;;;;13.55;2.22;;;;;;;;;;6342354;22;20501;-41
2023/10/21 03:34:28;;;;;;;15.05;2.72;;;;;;;;;;6336379;22;20015;-44
2023/10/21 03:36:56;;;;;;;12.20;2.15;;;;;;;;;;6342216;22;20060;-41
2023/10/21 03:39:23;;;;;;;15.18;2.53;;;;;;;;;;6333771;22;20010;-41
2023/10/21 03:41:52;;;;;;;11.30;2.17;;;;;;;;;;6334838;22;20872;-41
2023/10/21 03:44:20;;;;;;;10.15;2.00;;;;;;;;;;6342729;22;20014;-43
2023/10/21 03:46:48;;;;;;;12.05;2.67;;;;;;;;;;6318749;22;20018;-42
2023/10/21 03:49:17;;;;;;;12.00;2.50;;;;;;;;;;6300603;22;20041;-41
2023/10/21 03:51:45;;;;;;;20.45;2.50;;;;;;;;;;6335602;22;20335;-42
2023/10/21 03:54:12;;;;;;;14.00;1.90;;;;;;;;;;6340326;22;20041;-42
2023/10/21 03:56:41;;;;;;;22.33;3.05;;;;;;;;;;6337085;22;20010;-43
2023/10/21 03:59:10;;;;;;;18.30;3.70;;;;;;;;;;6346018;22;20025;-42
2023/10/21 04:01:38;;;;;;;17.17;2.92;;;;;;;;;;6334899;22;20349;-42
2023/10/21 04:04:06;;;;;;;19.00;3.58;;;;;;;;;;6336118;22;20021;-42
2023/10/21 04:06:34;;;;;;;17.90;2.83;;;;;;;;;;6342916;22;20037;-41
2023/10/21 04:09:02;;;;;;;14.75;2.67;;;;;;;;;;6344386;22;20104;-42
2023/10/21 04:11:30;;;;;;;17.98;3.15;;;;;;;;;;6333010;22;20413;-42
2023/10/21 04:13:58;;;;;;;14.98;2.95;;;;;;;;;;6340236;22;20045;-43
2023/10/21 04:16:27;;;;;;;14.25;2.70;;;;;;;;;;6308325;22;20025;-42
2023/10/21 04:18:55;;;;;;;20.97;3.33;;;;;;;;;;6344866;22;20011;-42
2023/10/21 04:21:25;;;;;;;20.05;2.67;;;;;;;;;;6339512;22;20014;-42
2023/10/21 04:23:54;;;;;;;13.40;2.40;;;;;;;;;;6343936;22;20441;-42
2023/10/21 04:26:22;;;;;;;12.65;2.60;;;;;;;;;;6342224;22;20014;-42
2023/10/21 04:28:50;;;;;;;20.38;2.70;;;;;;;;;;6335448;22;20010;-42
2023/10/21 04:31:17;;;;;;;19.57;4.50;;;;;;;;;;6340713;22;20014;-41
2023/10/21 04:33:47;;;;;;;13.52;3.42;;;;;;;;;;6335621;22;20018;-42
2023/10/21 04:36:19;;;;;;;14.15;2.83;;;;;;;;;;6346634;22;20547;-43
2023/10/21 04:38:47;;;;;;;9.93;2.38;;;;;;;;;;6346367;22;20033;-41
2023/10/21 04:41:15;;;;;;;14.07;2.60;;;;;;;;;;6341128;22;20055;-42
2023/10/21 04:43:43;;;;;;;17.33;3.67;;;;;;;;;;6340907;22;20175;-42
2023/10/21 04:46:11;;;;;;;12.93;2.67;;;;;;;;;;6323712;22;20041;-42
2023/10/21 04:48:39;;;;;;;17.10;2.88;;;;;;;;;;6340887;22;20018;-42
2023/10/21 04:51:07;;;;;;;12.98;2.83;;;;;;;;;;6332507;22;20025;-42
2023/10/21 04:53:37;;;;;;;17.38;3.38;;;;;;;;;;6339445;22;20015;-45
2023/10/21 04:56:05;;;;;;;17.77;3.13;;;;;;;;;;6334493;22;20014;-45
2023/10/21 04:58:33;;;;;;;17.40;2.70;;;;;;;;;;6339977;22;20015;-44
2023/10/21 05:01:02;;;;;;;16.35;3.10;;;;;;;;;;6336402;22;20089;-43
2023/10/21 05:03:31;;;;;;;14.13;3.08;;;;;;;;;;6328024;22;20041;-42
2023/10/21 05:05:59;;;;;;;19.40;3.38;;;;;;;;;;6334861;22;20044;-43
2023/10/21 05:08:28;;;;;;;19.77;3.50;;;;;;;;;;6324563;22;20019;-41
2023/10/21 05:10:56;;;;;;;15.55;2.60;;;;;;;;;;6335639;22;20018;-41
2023/10/21 05:13:23;;;;;;;15.95;3.03;;;;;;;;;;6325614;22;20029;-42
2023/10/21 05:15:51;;;;;;;15.52;3.03;;;;;;;;;;6343304;22;20065;-42
2023/10/21 05:18:20;;;;;;;18.00;3.65;;;;;;;;;;6323105;22;20041;-43
2023/10/21 05:20:48;;;;;;;17.30;3.50;;;;;;;;;;6338882;22;20021;-42
2023/10/21 05:23:16;;;;;;;16.27;4.35;;;;;;;;;;6336631;22;20014;-42
2023/10/21 05:25:45;;;;;;;17.88;4.32;;;;;;;;;;6339923;22;20015;-41
2023/10/21 05:28:12;;;;;;;16.83;3.10;;;;;;;;;;6338483;22;20014;-44
2023/10/21 05:30:42;;;;;;;18.90;4.07;;;;;;;;;;6321624;22;20519;-41
2023/10/21 05:33:10;;;;;;;21.60;3.63;;;;;;;;;;6338071;22;20442;-41
2023/10/21 05:35:38;;;;;;;20.50;3.40;;;;;;;;;;6298958;22;20514;-42
2023/10/21 05:38:09;;;;;;;16.27;3.42;;;;;;;;;;6340072;22;20025;-42
2023/10/21 05:40:38;;;;;;;22.00;3.20;;;;;;;;;;6334163;22;20040;-42
2023/10/21 05:43:08;;;;;;;20.88;4.18;;;;;;;;;;6336171;22;20516;-42
2023/10/21 05:45:36;;;;;;;18.70;3.50;;;;;;;;;;6335474;22;20014;-43
2023/10/21 05:48:04;;;;;;;14.32;3.55;;;;;;;;;;6317993;22;20075;-41
2023/10/21 05:50:32;;;;;;;22.27;4.10;;;;;;;;;;6333649;22;20033;-42
2023/10/21 05:53:00;;;;;;;16.73;3.28;;;;;;;;;;6343375;22;20014;-41
2023/10/21 05:55:27;;;;;;;13.98;3.45;;;;;;;;;;6330225;22;20028;-41
2023/10/21 05:57:55;;;;;;;18.73;3.43;;;;;;;;;;6334062;22;20021;-41
2023/10/21 06:00:25;;;;;;;13.63;3.50;;;;;;;;;;6331860;22;20015;-41
2023/10/21 06:02:53;;;;;;;15.55;3.30;;;;;;;;;;6330983;22;20015;-42
2023/10/21 06:05:21;;;;;;;11.60;2.90;;;;;;;;;;6328894;22;20020;-41
2023/10/21 06:07:49;;;;;;;19.75;2.95;;;;;;;;;;6332902;22;20014;-42
2023/10/21 06:10:16;;;;;;;12.37;2.80;;;;;;;;;;6320328;22;20345;-41
2023/10/21 06:12:44;;;;;;;12.23;3.03;;;;;;;;;;6329600;22;20014;-43
2023/10/21 06:15:16;;;;;;;17.63;3.15;;;;;;;;;;6328612;22;20011;-43
2023/10/21 06:17:46;;;;;;;10.48;2.50;;;;;;;;;;6330997;22;20183;-41
2023/10/21 06:20:14;;;;;;;13.90;2.55;;;;;;;;;;6330245;22;20019;-41
2023/10/21 06:22:42;;;;;;;15.77;2.67;;;;;;;;;;6314989;22;20484;-41
2023/10/21 06:25:12;;;;;;;18.40;3.20;;;;;;;;;;6340931;22;20037;-42
2023/10/21 06:27:40;;;;;;;12.70;2.95;;;;;;;;;;6331974;22;20018;-42
2023/10/21 06:30:08;;;;;;;11.98;3.17;;;;;;;;;;6324174;22;20301;-41
2023/10/21 06:32:36;;;;;;;14.98;4.00;;;;;;;;;;6335908;22;20363;-42
2023/10/21 06:35:07;;;;;;;13.23;2.53;;;;;;;;;;6328089;22;20228;-41
2023/10/21 06:37:34;;;;;;;16.65;2.80;;;;;;;;;;6324855;22;20075;-41
2023/10/21 06:40:04;;;;;;;11.25;2.58;;;;;;;;;;6334839;22;20029;-41
2023/10/21 06:42:32;;;;;;;10.73;2.22;;;;;;;;;;6336554;22;20071;-41
2023/10/21 06:45:00;;;;;;;11.02;2.97;;;;;;;;;;6335334;22;20106;-41
2023/10/21 06:47:28;;;;;;;15.80;3.23;;;;;;;;;;6337662;22;20014;-41
2023/10/21 06:49:56;;;;;;;13.95;3.15;;;;;;;;;;6332679;22;20014;-42
2023/10/21 06:52:26;;;;;;;14.57;3.30;;;;;;;;;;6345204;22;20101;-41
2023/10/21 06:54:56;;;;;;;15.25;3.33;;;;;;;;;;6330812;22;20029;-41
2023/10/21 06:57:24;;;;;;;18.92;4.35;;;;;;;;;;6345901;22;20021;-41
2023/10/21 06:59:56;;;;;;;20.20;4.30;;;;;;;;;;6304498;22;20554;-41
2023/10/21 07:02:24;;;;;;;17.10;4.97;;;;;;;;;;6336494;22;20069;-43
2023/10/21 07:04:52;;;;;;;13.75;3.58;;;;;;;;;;6338854;22;20015;-41
2023/10/21 07:07:20;;;;;;;18.13;3.72;;;;;;;;;;6320965;22;20074;-42
2023/10/21 07:09:49;;;;;;;16.33;4.90;;;;;;;;;;6338851;22;20059;-41
2023/10/21 07:12:16;;;;;;;16.33;3.93;;;;;;;;;;6335422;22;20466;-42
2023/10/21 07:14:44;;;;;;;14.77;3.75;;;;;;;;;;6332279;22;20010;-41
2023/10/21 07:17:12;;;;;;;12.20;3.25;;;;;;;;;;6343719;22;20415;-41
2023/10/21 07:19:39;;;;;;;18.13;4.07;;;;;;;;;;6303028;22;20349;-41
2023/10/21 07:22:07;;;;;;;19.77;3.90;;;;;;;;;;6340207;22;20015;-43
2023/10/21 07:24:35;;;;;;;19.67;4.93;;;;;;;;;;6326398;22;20021;-41
2023/10/21 07:27:05;;;;;;;21.33;5.53;;;;;;;;;;6330311;22;20053;-41
2023/10/21 07:29:33;;;;;;;19.63;4.85;;;;;;;;;;6330102;22;20510;-43
2023/10/21 07:32:01;;;;;;;16.70;4.63;;;;;;;;;;6328063;22;20028;-42
2023/10/21 07:34:29;;;;;;;17.88;5.70;;;;;;;;;;6333937;22;20022;-43
2023/10/21 07:36:57;;;;;;;29.63;6.27;;;;;;;;;;6335054;22;20018;-41
2023/10/21 07:39:26;;;;;;;22.15;5.70;;;;;;;;;;6330821;22;20018;-41
2023/10/21 07:41:54;;;;;;;20.15;5.82;;;;;;;;;;6338757;22;20019;-42
2023/10/21 07:44:24;;;;;;;19.60;5.80;;;;;;;;;;6331001;22;20874;-42
2023/10/21 07:46:51;;;;;;;19.83;4.25;;;;;;;;;;6326490;22;20025;-41
2023/10/21 07:49:19;;;;;;;19.17;4.00;;;;;;;;;;6335084;22;20455;-41
2023/10/21 07:51:48;;;;;;;17.27;4.63;;;;;;;;;;6329630;22;20029;-41
2023/10/21 07:54:16;;;;;;;16.30;3.60;;;;;;;;;;6333731;22;20014;-43
2023/10/21 07:56:45;;;;;;;18.25;4.22;;;;;;;;;;6329322;22;20064;-42
2023/10/21 07:59:15;;;;;;;16.50;5.35;;;;;;;;;;6327444;22;20018;-42
2023/10/21 08:01:45;;;;;;;25.53;5.70;;;;;;;;;;6331811;22;20036;-49
2023/10/21 08:04:13;;;;;;;17.23;5.57;;;;;;;;;;6339013;22;20025;-41
2023/10/21 08:06:43;;;;;;;25.55;7.38;;;;;;;;;;6336644;22;20018;-43
2023/10/21 08:09:19;;;;;;;25.02;6.43;;;;;;;;;;6333639;22;20778;-41
2023/10/21 08:11:48;;;;;;;22.02;6.88;;;;;;;;;;6323817;22;20049;-41
2023/10/21 08:14:16;;;;;;;20.53;6.37;;;;;;;;;;6336821;22;20356;-42
2023/10/21 08:16:47;;;;;;;23.90;6.15;;;;;;;;;;6331138;22;20014;-42
2023/10/21 08:19:16;;;;;;;21.52;6.35;;;;;;;;;;6336686;22;20445;-41
2023/10/21 08:21:45;;;;;;;19.85;5.90;;;;;;;;;;6341186;22;20780;-43
2023/10/21 08:24:12;;;;;;;26.48;6.22;;;;;;;;;;6334371;22;20025;-41
2023/10/21 08:26:40;;;;;;;22.83;5.20;;;;;;;;;;6337754;22;20555;-41
2023/10/21 08:29:10;;;;;;;21.98;5.63;;;;;;;;;;6333008;22;20524;-42
2023/10/21 08:31:37;;;;;;;18.40;5.93;;;;;;;;;;6330262;22;20794;-42
2023/10/21 08:34:12;;;;;;;16.38;6.03;;;;;;;;;;6326418;22;20014;-42
2023/10/21 08:36:41;;;;;;;17.27;6.38;;;;;;;;;;6340983;22;20497;-41
2023/10/21 08:39:09;;;;;;;19.60;5.20;;;;;;;;;;6324032;22;20456;-46
2023/10/21 08:41:37;;;;;;;20.98;5.55;;;;;;;;;;6339278;22;20365;-43
2023/10/21 08:44:06;;;;;;;16.55;5.40;;;;;;;;;;6332629;22;20018;-42
2023/10/21 08:46:35;;;;;;;17.40;6.20;;;;;;;;;;6338186;22;20022;-42
2023/10/21 08:49:03;;;;;;;21.42;6.45;;;;;;;;;;6331932;22;20014;-45
2023/10/21 08:51:33;;;;;;;19.33;5.93;;;;;;;;;;6328705;22;20445;-44
2023/10/21 08:54:03;;;;;;;19.45;5.43;;;;;;;;;;6330573;22;20087;-46
2023/10/21 08:56:30;;;;;;;20.52;6.22;;;;;;;;;;6325090;22;20093;-42
2023/10/21 08:58:59;;;;;;;23.40;6.47;;;;;;;;;;6306085;22;20022;-42
2023/10/21 09:01:26;;;;;;;20.77;5.43;;;;;;;;;;6328395;22;20147;-43
2023/10/21 09:03:54;;;;;;;24.77;5.63;;;;;;;;;;6335524;22;20029;-50
2023/10/21 09:06:22;;;;;;;29.52;5.18;;;;;;;;;;6335515;22;20014;-42
2023/10/21 09:08:51;;;;;;;19.55;5.55;;;;;;;;;;6298540;22;20018;-41
2023/10/21 09:11:20;;;;;;;23.08;5.13;;;;;;;;;;6335386;22;20018;-42
2023/10/21 09:13:52;;;;;;;30.13;6.10;;;;;;;;;;6329571;22;20028;-42
2023/10/21 09:16:24;;;;;;;33.90;5.73;;;;;;;;;;6324821;22;20089;-41
2023/10/21 09:19:03;;;;;;;28.80;6.28;;;;;;;;;;6337706;22;20029;-42
2023/10/21 09:21:32;;;;;;;21.70;5.22;;;;;;;;;;6333247;22;20423;-41
2023/10/21 09:24:02;;;;;;;18.30;5.03;;;;;;;;;;6324690;22;20014;-42
2023/10/21 09:26:34;;;;;;;22.23;4.78;;;;;;;;;;6331102;22;20018;-42
2023/10/21 09:29:10;;;;;;;17.30;4.87;;;;;;;;;;6334845;22;20014;-41
2023/10/21 09:31:41;;;;;;;19.92;4.30;;;;;;;;;;6334695;22;20022;-43
2023/10/21 09:34:09;;;;;;;19.65;5.53;;;;;;;;;;6330951;22;20011;-41
2023/10/21 09:36:40;;;;;;;21.25;5.03;;;;;;;;;;6329454;22;20089;-42
2023/10/21 09:39:10;;;;;;;21.38;5.03;;;;;;;;;;6332637;22;20363;-41
2023/10/21 09:41:38;;;;;;;25.63;5.90;;;;;;;;;;6339335;22;20473;-41
2023/10/21 09:44:07;;;;;;;22.98;6.15;;;;;;;;;;6323902;22;20021;-41
2023/10/21 09:46:37;;;;;;;24.17;5.03;;;;;;;;;;6327923;22;20067;-41
2023/10/21 09:49:06;;;;;;;18.23;5.25;;;;;;;;;;6336434;22;20014;-41
2023/10/21 09:51:36;;;;;;;15.60;4.82;;;;;;;;;;6336772;22;20205;-41
2023/10/21 09:54:13;;;;;;;12.07;4.03;;;;;;;;;;6329934;22;20032;-41
2023/10/21 09:56:42;;;;;;;13.57;3.42;;;;;;;;;;6322700;22;20015;-45
2023/10/21 09:59:10;;;;;;;12.48;3.45;;;;;;;;;;6302912;22;20899;-40
2023/10/21 10:01:39;;;;;;;10.80;3.00;;;;;;;;;;6332616;22;20018;-41
2023/10/21 10:04:09;;;;;;;9.90;2.75;;;;;;;;;;6323987;22;20472;-41
2023/10/21 10:06:38;;;;;;;8.87;2.83;;;;;;;;;;6333089;22;20014;-41
2023/10/21 10:09:12;;;;;;;8.90;3.17;;;;;;;;;;6335279;22;20018;-41
2023/10/21 10:11:45;;;;;;;10.70;2.85;;;;;;;;;;6326576;22;20093;-40
2023/10/21 10:14:14;;;;;;;8.77;3.10;;;;;;;;;;6322913;22;20437;-41
2023/10/21 10:16:44;;;;;;;12.60;3.58;;;;;;;;;;6331193;22;20027;-41
2023/10/21 10:19:14;;;;;;;8.30;2.80;;;;;;;;;;6345654;22;20014;-40
2023/10/21 10:21:42;;;;;;;9.23;2.50;;;;;;;;;;6332270;22;20014;-41
2023/10/21 10:24:17;;;;;;;8.30;3.00;;;;;;;;;;6339463;22;20017;-41
2023/10/21 10:26:45;;;;;;;9.00;2.65;;;;;;;;;;6341140;22;20025;-41
2023/10/21 10:29:18;;;;;;;8.18;2.80;;;;;;;;;;6316702;22;20479;-40
2023/10/21 10:31:45;;;;;;;8.73;2.50;;;;;;;;;;6332114;22;20372;-41
2023/10/21 10:34:17;;;;;;;8.10;2.75;;;;;;;;;;6331824;22;20097;-40
2023/10/21 10:36:45;;;;;;;7.60;2.30;;;;;;;;;;6335159;22;20137;-41
2023/10/21 10:39:27;;;;;;;6.72;2.08;;;;;;;;;;6337814;22;20018;-40
2023/10/21 10:41:58;;;;;;;7.95;2.10;;;;;;;;;;6329909;22;20272;-40
2023/10/21 10:44:27;;;;;;;6.07;1.67;;;;;;;;;;6338447;22;20089;-41
2023/10/21 10:46:57;;;;;;;6.10;1.30;;;;;;;;;;6336051;22;20517;-41
2023/10/21 10:49:27;;;;;;;6.15;1.40;;;;;;;;;;6326914;22;20014;-41
2023/10/21 10:51:55;;;;;;;4.65;0.85;;;;;;;;;;6333304;22;20029;-41
2023/10/21 10:54:26;;;;;;;3.95;0.88;;;;;;;;;;6327362;22;20337;-41
2023/10/21 10:56:57;;;;;;;4.23;0.80;;;;;;;;;;6328568;22;20089;-41
2023/10/21 10:59:28;;;;;;;4.50;1.02;;;;;;;;;;6321320;22;20428;-41
2023/10/21 11:02:01;;;;;;;4.88;0.80;;;;;;;;;;6338638;22;20018;-41
2023/10/21 11:04:32;;;;;;;3.67;0.88;;;;;;;;;;6332642;22;20037;-41
2023/10/21 11:07:03;;;;;;;3.78;0.35;;;;;;;;;;6323180;22;20417;-41
2023/10/21 11:09:32;;;;;;;2.60;0.40;;;;;;;;;;6311533;22;20018;-41
2023/10/21 11:12:00;;;;;;;3.90;0.40;;;;;;;;;;6330357;22;20011;-41
2023/10/21 11:14:39;;;;;;;3.97;0.70;;;;;;;;;;6330027;22;20089;-41
2023/10/21 11:17:06;;;;;;;4.72;0.50;;;;;;;;;;6333997;22;20432;-42
2023/10/21 11:19:34;;;;;;;5.07;0.50;;;;;;;;;;6338725;22;20011;-42
2023/10/21 11:22:07;;;;;;;2.90;0.50;;;;;;;;;;6338838;22;20519;-41
2023/10/21 11:24:36;;;;;;;4.00;0.75;;;;;;;;;;6329344;22;20025;-41
2023/10/21 11:27:05;;;;;;;3.33;0.70;;;;;;;;;;6335393;22;20021;-41
2023/10/21 11:29:34;;;;;;;3.40;0.50;;;;;;;;;;6324287;22;20014;-41
2023/10/21 11:32:09;;;;;;;5.72;0.60;;;;;;;;;;6337704;22;20055;-41
2023/10/21 11:34:37;;;;;;;3.63;0.50;;;;;;;;;;6327087;22;20019;-41
2023/10/21 11:37:10;;;;;;;3.60;0.90;;;;;;;;;;6328238;22;20025;-41
2023/10/21 11:39:40;;;;;;;4.10;0.70;;;;;;;;;;6339561;22;20079;-42
2023/10/21 11:42:15;;;;;;;3.45;0.70;;;;;;;;;;6324931;22;20623;-40
2023/10/21 11:44:54;;;;;;;4.53;1.10;;;;;;;;;;6339147;22;20067;-40
2023/10/21 11:47:26;;;;;;;5.00;1.23;;;;;;;;;;6328728;22;20021;-42
2023/10/21 11:49:54;;;;;;;5.13;1.50;;;;;;;;;;6331727;22;20019;-41
2023/10/21 11:52:22;;;;;;;5.13;1.20;;;;;;;;;;6331956;22;20014;-41
2023/10/21 11:55:20;;;;;;;6.32;1.30;;;;;;;;;;6325445;22;20033;-40
2023/10/21 12:01:44;;;;;;;4.43;1.00;;;;;;;;;;6338606;22;20018;-40
2023/10/21 12:12:12;;;;;;;4.85;1.10;;;;;;;;;;6329366;22;20352;-41
2023/10/21 12:37:28;;;;;;;6.97;1.95;;;;;;;;;;6321387;22;20014;-42
2023/10/21 12:40:01;;;;;;;7.55;2.30;;;;;;;;;;6333624;22;20022;-41
2023/10/21 12:42:35;;;;;;;7.73;2.17;;;;;;;;;;6331918;22;20395;-41
2023/10/21 12:45:10;;;;;;;8.43;2.55;;;;;;;;;;6328315;22;20022;-41
2023/10/21 12:47:43;;;;;;;7.90;2.03;;;;;;;;;;6328299;22;20369;-42
2023/10/21 12:50:14;;;;;;;7.28;2.10;;;;;;;;;;6327884;22;20518;-41
2023/10/21 12:52:43;;;;;;;5.32;2.00;;;;;;;;;;6311296;22;20018;-41
2023/10/21 12:55:11;;;;;;;6.63;1.80;;;;;;;;;;6278923;22;20030;-42
2023/10/21 12:57:43;;;;;;;6.63;2.33;;;;;;;;;;6314057;22;20106;-42
2023/10/21 13:00:12;;;;;;;7.50;2.45;;;;;;;;;;6336689;22;20524;-41
2023/10/21 13:02:41;;;;;;;7.45;2.63;;;;;;;;;;6333235;22;20018;-41
2023/10/21 13:05:16;;;;;;;8.23;2.45;;;;;;;;;;6317576;22;20363;-42
2023/10/21 13:07:45;;;;;;;7.73;2.80;;;;;;;;;;6327159;22;20018;-41
2023/10/21 13:10:14;;;;;;;8.10;3.20;;;;;;;;;;6322343;22;20014;-41
2023/10/21 13:12:41;;;;;;;7.18;3.13;;;;;;;;;;6321800;22;20029;-40
2023/10/21 13:15:11;;;;;;;7.88;3.47;;;;;;;;;;6330748;22;20478;-41
2023/10/21 13:17:39;;;;;;;10.23;5.05;;;;;;;;;;6327463;22;20014;-41
2023/10/21 13:20:16;;;;;;;10.97;5.33;;;;;;;;;;6320207;22;20472;-41
2023/10/21 13:22:46;;;;;;;10.73;4.82;;;;;;;;;;6320871;22;20680;-41
2023/10/21 13:25:14;;;;;;;11.55;5.28;;;;;;;;;;6317164;22;20018;-41
2023/10/21 13:27:52;;;;;;;9.50;4.70;;;;;;;;;;6319237;22;20095;-41
2023/10/21 13:30:20;;;;;;;10.85;5.15;;;;;;;;;;6324749;22;20083;-42
2023/10/21 13:32:49;;;;;;;9.63;5.17;;;;;;;;;;6289485;22;20018;-40
2023/10/21 13:35:17;;;;;;;11.30;5.68;;;;;;;;;;6319913;22;20022;-40
2023/10/21 13:37:47;;;;;;;12.25;7.15;;;;;;;;;;6299894;22;20041;-41
2023/10/21 13:40:15;;;;;;;11.75;5.57;;;;;;;;;;6329123;22;20021;-41
2023/10/21 13:42:44;;;;;;;11.10;5.90;;;;;;;;;;6320523;22;20021;-41
2023/10/21 13:45:19;;;;;;;10.50;5.97;;;;;;;;;;6318148;22;20018;-41
2023/10/21 13:47:48;;;;;;;8.43;5.18;;;;;;;;;;6312930;22;20033;-41
2023/10/21 13:50:17;;;;;;;8.63;4.85;;;;;;;;;;6325785;22;20018;-41
2023/10/21 13:52:46;;;;;;;8.52;4.15;;;;;;;;;;6316783;22;20512;-41
2023/10/21 13:55:15;;;;;;;8.88;4.82;;;;;;;;;;6318641;22;20018;-41
2023/10/21 13:57:46;;;;;;;8.83;5.77;;;;;;;;;;6319992;22;20018;-41
2023/10/21 14:03:11;;;;;;;11.05;6.22;;;;;;;;;;6309862;22;20018;-42
2023/10/21 14:05:51;;;;;;;13.13;8.32;;;;;;;;;;6281156;22;20254;-42
2023/10/21 14:08:24;;;;;;;15.30;8.35;;;;;;;;;;6287819;22;20021;-42
2023/10/21 14:10:53;;;;;;;16.40;10.23;;;;;;;;;;6293680;22;20015;-41
2023/10/21 14:13:22;;;;;;;16.63;10.90;;;;;;;;;;6289296;22;20053;-41
2023/10/21 14:15:51;;;;;;;13.15;8.05;;;;;;;;;;6311032;22;20029;-41
2023/10/21 14:18:21;;;;;;;13.90;7.45;;;;;;;;;;6267017;22;20019;-41
2023/10/21 14:20:53;;;;;;;8.45;4.10;;;;;;;;;;6292504;22;20050;-41
2023/10/21 14:23:23;;;;;;;4.90;1.60;;;;;;;;;;6283437;22;20011;-41
2023/10/21 14:25:52;;;;;;;6.05;2.65;;;;;;;;;;6288484;22;20022;-41
2023/10/21 14:28:20;;;;;;;7.13;3.20;;;;;;;;;;6293007;22;20022;-41
2023/10/21 14:30:49;;;;;;;5.47;2.58;;;;;;;;;;6296167;22;20346;-41
2023/10/21 14:33:17;;;;;;;5.95;2.60;;;;;;;;;;6302927;22;20042;-41
2023/10/21 14:35:46;;;;;;;6.00;2.70;;;;;;;;;;6288275;22;20022;-42
2023/10/21 14:38:15;;;;;;;7.72;3.17;;;;;;;;;;6304861;22;20042;-41
2023/10/21 14:40:44;;;;;;;7.40;3.10;;;;;;;;;;6300326;22;20018;-41
2023/10/21 14:43:13;;;;;;;7.78;3.30;;;;;;;;;;6299049;22;20104;-41
2023/10/21 14:45:45;;;;;;;7.22;3.60;;;;;;;;;;6296950;22;20435;-42
2023/10/21 14:48:13;;;;;;;5.23;2.40;;;;;;;;;;6309149;22;20055;-41
2023/10/21 14:50:42;;;;;;;7.07;1.95;;;;;;;;;;6290299;22;20042;-44
2023/10/21 14:53:11;;;;;;;4.57;1.42;;;;;;;;;;6298075;22;20014;-42
2023/10/21 14:55:39;;;;;;;5.90;2.00;;;;;;;;;;6240413;22;20029;-42
2023/10/21 14:58:22;;;;;;;6.47;1.90;;;;;;;;;;6285012;22;20022;-43
2023/10/21 15:00:51;;;;;;;5.27;1.77;;;;;;;;;;6301129;22;20056;-42
2023/10/21 15:03:21;;;;;;;5.43;2.00;;;;;;;;;;6295955;22;20021;-41
2023/10/21 15:05:50;;;;;;;5.65;1.77;;;;;;;;;;6294784;22;20026;-44
2023/10/21 15:08:23;;;;;;;6.20;1.75;;;;;;;;;;6309561;22;20021;-43
2023/10/21 15:10:53;;;;;;;5.70;1.70;;;;;;;;;;6305905;22;20048;-42
2023/10/21 15:13:25;;;;;;;5.30;1.73;;;;;;;;;;6269327;22;20023;-42
2023/10/21 15:16:00;;;;;;;5.47;1.75;;;;;;;;;;6283750;22;20018;-42
2023/10/21 15:18:30;;;;;;;5.22;1.98;;;;;;;;;;6279588;22;20072;-42
2023/10/21 15:21:05;;;;;;;5.25;1.38;;;;;;;;;;6305735;22;20111;-41
2023/10/21 15:23:34;;;;;;;6.50;1.40;;;;;;;;;;6303416;22;20507;-42